Página principal
METAR-TAF:

METAR-TAF

Aeroportos :

Santa Maria, Açores, Portugal

Aeroporto de Santa Maria

latitude: 36-58N, longitude: 025-10W, altura: 100 m

Observação actual do tempo

O boletim foi feito há 23 minutos, às 00:00 UTC
Vento 12 kt de nor-noroeste
Temperatura 14°C
Humidade 67%
Pressão 1026 hPa
Visibilidade 10 km ou mais
Poucas nuvensa uma altura de 2800 ft

METAR: LPAZ 170000Z 34012KT 9999 FEW028 14/08 Q1026

Hora: 23:23 (00:23 UTC)

Previsão

O boletim foi feito há 1 hora e 23 minutos, às 23:00 UTC
Previsão válida de 17 às 00 UTC a 18 às 06 UTC
Vento 12 kt de nor-noroeste
Visibilidade 10 km ou mais
Nuvens dispersasa uma altura de 2500 ft
Tornando-se
de 17 às 18 UTC a 17 às 21 UTC
Vento 8 kt de nor-nordeste
Tornando-se
de 18 às 00 UTC a 18 às 03 UTC
Vento 5 kt com direcção variável

TAF: LPAZ 162300Z 1700/1806 34012KT 9999 SCT025 BECMG 1718/1721 02008KT BECMG 1800/1803 VRB05KT

Observações e previsões do tempo de mais de 4000 aeroportos (mensagens METAR e TAF).

As estações disponíveis são os pontos amarelos e vermelhos sobre o mapa.

Mova o rato sobre o mapa para ver o nome da estação.

Depois clique no ponto para visualizar as observações e previsões meteorológicas.

Para alterar o mapa : clique nos botões verdes com uma cruz preta para aumentar o zoom; no botão verde com uma pitada de zoom; ou nas setas verdes para mapas adjacentes.


METAR-TAF: